sensor_id;sensor_type;location;lat;lon;timestamp;pressure;altitude;pressure_sealevel;temperature;humidity
38616;BME280;24370;51.986;4.666;2024-02-21T00:00:34;102208.28;;;18.64;46.98
38616;BME280;24370;51.986;4.666;2024-02-21T00:02:59;102202.91;;;19.08;45.76
38616;BME280;24370;51.986;4.666;2024-02-21T00:05:27;102196.88;;;18.20;47.62
38616;BME280;24370;51.986;4.666;2024-02-21T00:07:52;102199.09;;;18.80;46.28
38616;BME280;24370;51.986;4.666;2024-02-21T00:10:18;102182.34;;;19.54;44.89
38616;BME280;24370;51.986;4.666;2024-02-21T00:12:43;102175.47;;;19.10;45.48
38616;BME280;24370;51.986;4.666;2024-02-21T00:15:09;102172.41;;;18.90;46.03
38616;BME280;24370;51.986;4.666;2024-02-21T00:17:34;102173.84;;;18.25;46.97
38616;BME280;24370;51.986;4.666;2024-02-21T00:19:59;102190.63;;;17.75;47.70
38616;BME280;24370;51.986;4.666;2024-02-21T00:22:25;102195.28;;;18.94;45.33
38616;BME280;24370;51.986;4.666;2024-02-21T00:24:54;102162.44;;;19.01;45.88
38616;BME280;24370;51.986;4.666;2024-02-21T00:27:19;102173.31;;;18.50;47.00
38616;BME280;24370;51.986;4.666;2024-02-21T00:29:44;102172.72;;;17.93;48.42
38616;BME280;24370;51.986;4.666;2024-02-21T00:32:10;102179.06;;;18.69;46.26
38616;BME280;24370;51.986;4.666;2024-02-21T00:34:35;102185.75;;;18.44;46.62
38616;BME280;24370;51.986;4.666;2024-02-21T00:37:01;102194.06;;;18.68;46.52
38616;BME280;24370;51.986;4.666;2024-02-21T00:39:26;102191.66;;;18.57;46.46
38616;BME280;24370;51.986;4.666;2024-02-21T00:41:51;102189.03;;;19.67;44.21
38616;BME280;24370;51.986;4.666;2024-02-21T00:44:17;102186.66;;;19.58;44.36
38616;BME280;24370;51.986;4.666;2024-02-21T00:46:42;102183.47;;;18.68;46.26
38616;BME280;24370;51.986;4.666;2024-02-21T00:49:07;102186.97;;;18.70;46.53
38616;BME280;24370;51.986;4.666;2024-02-21T00:51:33;102191.53;;;18.63;46.35
38616;BME280;24370;51.986;4.666;2024-02-21T00:53:59;102181.75;;;19.06;45.75
38616;BME280;24370;51.986;4.666;2024-02-21T00:56:24;102180.91;;;18.65;46.40
38616;BME280;24370;51.986;4.666;2024-02-21T00:58:49;102185.09;;;18.75;46.21
38616;BME280;24370;51.986;4.666;2024-02-21T01:01:21;102165.78;;;18.70;46.22
38616;BME280;24370;51.986;4.666;2024-02-21T01:03:48;102163.50;;;18.94;45.42
38616;BME280;24370;51.986;4.666;2024-02-21T01:06:13;102158.03;;;18.61;46.27
38616;BME280;24370;51.986;4.666;2024-02-21T01:08:38;102152.81;;;18.97;45.48
38616;BME280;24370;51.986;4.666;2024-02-21T01:11:04;102151.88;;;19.34;45.07
38616;BME280;24370;51.986;4.666;2024-02-21T01:13:29;102151.84;;;19.01;45.06
38616;BME280;24370;51.986;4.666;2024-02-21T01:15:54;102151.66;;;19.43;44.18
38616;BME280;24370;51.986;4.666;2024-02-21T01:18:20;102150.03;;;19.03;45.61
38616;BME280;24370;51.986;4.666;2024-02-21T01:20:45;102141.53;;;19.59;43.86
38616;BME280;24370;51.986;4.666;2024-02-21T01:23:11;102153.63;;;19.35;44.47
38616;BME280;24370;51.986;4.666;2024-02-21T01:25:36;102143.88;;;19.70;43.62
38616;BME280;24370;51.986;4.666;2024-02-21T01:28:01;102146.03;;;19.56;44.08
38616;BME280;24370;51.986;4.666;2024-02-21T01:30:27;102145.00;;;20.24;42.77
38616;BME280;24370;51.986;4.666;2024-02-21T01:32:52;102133.94;;;19.45;44.37
38616;BME280;24370;51.986;4.666;2024-02-21T01:35:17;102133.38;;;18.98;45.75
38616;BME280;24370;51.986;4.666;2024-02-21T01:37:43;102135.31;;;19.26;44.72
38616;BME280;24370;51.986;4.666;2024-02-21T01:40:09;102133.28;;;19.70;43.65
38616;BME280;24370;51.986;4.666;2024-02-21T01:42:38;102126.75;;;20.13;43.07
38616;BME280;24370;51.986;4.666;2024-02-21T01:45:05;102120.66;;;19.78;43.98
38616;BME280;24370;51.986;4.666;2024-02-21T01:47:30;102127.31;;;19.29;44.52
38616;BME280;24370;51.986;4.666;2024-02-21T01:49:56;102130.25;;;20.15;43.10
38616;BME280;24370;51.986;4.666;2024-02-21T01:52:21;102136.06;;;19.97;43.36
38616;BME280;24370;51.986;4.666;2024-02-21T01:54:47;102128.59;;;20.40;42.23
38616;BME280;24370;51.986;4.666;2024-02-21T01:57:13;102121.09;;;19.94;42.67
38616;BME280;24370;51.986;4.666;2024-02-21T01:59:40;102125.66;;;19.91;43.30
38616;BME280;24370;51.986;4.666;2024-02-21T02:02:05;102121.91;;;19.98;43.01
38616;BME280;24370;51.986;4.666;2024-02-21T02:04:31;102111.69;;;19.51;44.03
38616;BME280;24370;51.986;4.666;2024-02-21T02:07:00;102108.63;;;20.28;42.45
38616;BME280;24370;51.986;4.666;2024-02-21T02:09:28;102105.06;;;19.99;42.95
38616;BME280;24370;51.986;4.666;2024-02-21T02:11:54;102101.31;;;20.06;42.97
38616;BME280;24370;51.986;4.666;2024-02-21T02:14:19;102100.63;;;19.35;43.96
38616;BME280;24370;51.986;4.666;2024-02-21T02:16:48;102097.56;;;18.80;45.25
38616;BME280;24370;51.986;4.666;2024-02-21T02:19:13;102101.78;;;19.58;43.68
38616;BME280;24370;51.986;4.666;2024-02-21T02:21:44;102098.31;;;18.47;46.29
38616;BME280;24370;51.986;4.666;2024-02-21T02:24:11;102098.16;;;18.93;45.32
38616;BME280;24370;51.986;4.666;2024-02-21T02:26:39;102088.84;;;19.12;44.13
38616;BME280;24370;51.986;4.666;2024-02-21T02:29:04;102083.94;;;18.59;45.68
38616;BME280;24370;51.986;4.666;2024-02-21T02:31:30;102083.22;;;18.53;46.21
38616;BME280;24370;51.986;4.666;2024-02-21T02:33:55;102068.91;;;19.32;44.39
38616;BME280;24370;51.986;4.666;2024-02-21T02:36:21;102075.53;;;18.78;45.86
38616;BME280;24370;51.986;4.666;2024-02-21T02:38:46;102073.41;;;19.28;44.60
38616;BME280;24370;51.986;4.666;2024-02-21T02:41:11;102081.69;;;19.49;44.34
38616;BME280;24370;51.986;4.666;2024-02-21T02:43:37;102081.78;;;19.46;44.25
38616;BME280;24370;51.986;4.666;2024-02-21T02:46:02;102073.72;;;19.16;44.79
38616;BME280;24370;51.986;4.666;2024-02-21T02:48:29;102072.63;;;19.25;44.70
38616;BME280;24370;51.986;4.666;2024-02-21T02:50:54;102077.06;;;18.90;45.74
38616;BME280;24370;51.986;4.666;2024-02-21T02:53:20;102069.09;;;19.89;43.34
38616;BME280;24370;51.986;4.666;2024-02-21T02:55:45;102055.19;;;19.80;43.32
38616;BME280;24370;51.986;4.666;2024-02-21T02:58:11;102043.56;;;20.14;42.63
38616;BME280;24370;51.986;4.666;2024-02-21T03:00:36;102052.19;;;18.22;46.26
38616;BME280;24370;51.986;4.666;2024-02-21T03:03:02;102036.13;;;19.66;43.82
38616;BME280;24370;51.986;4.666;2024-02-21T03:05:30;102043.09;;;19.70;43.03
38616;BME280;24370;51.986;4.666;2024-02-21T03:07:56;102040.16;;;19.48;44.24
38616;BME280;24370;51.986;4.666;2024-02-21T03:10:21;102033.16;;;19.77;43.79
38616;BME280;24370;51.986;4.666;2024-02-21T03:12:47;102026.28;;;20.01;42.59
38616;BME280;24370;51.986;4.666;2024-02-21T03:15:13;102029.25;;;19.59;43.07
38616;BME280;24370;51.986;4.666;2024-02-21T03:17:39;102026.84;;;19.82;43.34
38616;BME280;24370;51.986;4.666;2024-02-21T03:20:06;102022.59;;;19.75;43.57
38616;BME280;24370;51.986;4.666;2024-02-21T03:22:34;102003.28;;;20.57;41.63
38616;BME280;24370;51.986;4.666;2024-02-21T03:25:00;102005.63;;;20.39;42.68
38616;BME280;24370;51.986;4.666;2024-02-21T03:27:25;101999.69;;;20.58;41.74
38616;BME280;24370;51.986;4.666;2024-02-21T03:29:50;101994.91;;;20.67;41.71
38616;BME280;24370;51.986;4.666;2024-02-21T03:32:16;102008.31;;;19.49;43.97
38616;BME280;24370;51.986;4.666;2024-02-21T03:34:41;102008.75;;;19.34;44.43
38616;BME280;24370;51.986;4.666;2024-02-21T03:37:06;102009.53;;;19.38;44.04
38616;BME280;24370;51.986;4.666;2024-02-21T03:39:32;102002.53;;;18.68;45.56
38616;BME280;24370;51.986;4.666;2024-02-21T03:41:58;102003.28;;;19.40;44.22
38616;BME280;24370;51.986;4.666;2024-02-21T03:44:26;101996.34;;;19.96;42.97
38616;BME280;24370;51.986;4.666;2024-02-21T03:46:52;102000.91;;;19.61;43.27
38616;BME280;24370;51.986;4.666;2024-02-21T03:49:18;101998.16;;;19.64;43.59
38616;BME280;24370;51.986;4.666;2024-02-21T03:51:43;101995.97;;;18.82;45.21
38616;BME280;24370;51.986;4.666;2024-02-21T03:54:08;101997.25;;;19.65;43.24
38616;BME280;24370;51.986;4.666;2024-02-21T03:56:37;101991.09;;;19.94;42.80
38616;BME280;24370;51.986;4.666;2024-02-21T03:59:02;101988.91;;;18.83;44.33
38616;BME280;24370;51.986;4.666;2024-02-21T04:01:31;101978.63;;;19.98;42.99
38616;BME280;24370;51.986;4.666;2024-02-21T04:03:56;101984.44;;;19.79;43.01
38616;BME280;24370;51.986;4.666;2024-02-21T04:06:22;101974.78;;;19.77;43.28
38616;BME280;24370;51.986;4.666;2024-02-21T04:08:47;101974.59;;;18.92;44.73
38616;BME280;24370;51.986;4.666;2024-02-21T04:11:12;101977.03;;;20.19;42.12
38616;BME280;24370;51.986;4.666;2024-02-21T04:13:38;101978.75;;;19.63;43.47
38616;BME280;24370;51.986;4.666;2024-02-21T04:16:03;101986.22;;;19.18;44.43
38616;BME280;24370;51.986;4.666;2024-02-21T04:18:31;101991.28;;;19.27;43.70
38616;BME280;24370;51.986;4.666;2024-02-21T04:20:56;101981.88;;;20.06;42.97
38616;BME280;24370;51.986;4.666;2024-02-21T04:23:21;101985.66;;;19.69;43.42
38616;BME280;24370;51.986;4.666;2024-02-21T04:25:46;101978.59;;;18.36;46.32
38616;BME280;24370;51.986;4.666;2024-02-21T04:28:12;101988.28;;;18.01;47.02
38616;BME280;24370;51.986;4.666;2024-02-21T04:30:37;101977.47;;;19.47;43.80
38616;BME280;24370;51.986;4.666;2024-02-21T04:33:03;101972.41;;;19.06;44.60
38616;BME280;24370;51.986;4.666;2024-02-21T04:35:32;101969.59;;;19.74;43.22
38616;BME280;24370;51.986;4.666;2024-02-21T04:37:57;101962.81;;;19.33;43.54
38616;BME280;24370;51.986;4.666;2024-02-21T04:40:22;101956.66;;;19.93;43.08
38616;BME280;24370;51.986;4.666;2024-02-21T04:42:48;101957.53;;;19.63;43.44
38616;BME280;24370;51.986;4.666;2024-02-21T04:45:13;101948.00;;;19.86;42.60
38616;BME280;24370;51.986;4.666;2024-02-21T04:47:39;101945.69;;;19.45;43.38
38616;BME280;24370;51.986;4.666;2024-02-21T04:50:04;101948.34;;;19.45;43.57
38616;BME280;24370;51.986;4.666;2024-02-21T04:52:30;101944.88;;;20.02;42.71
38616;BME280;24370;51.986;4.666;2024-02-21T04:54:55;101943.72;;;18.91;45.11
38616;BME280;24370;51.986;4.666;2024-02-21T04:57:21;101940.25;;;18.53;45.11
38616;BME280;24370;51.986;4.666;2024-02-21T04:59:46;101936.75;;;19.48;43.62
38616;BME280;24370;51.986;4.666;2024-02-21T05:02:14;101933.75;;;19.30;44.00
38616;BME280;24370;51.986;4.666;2024-02-21T05:04:40;101929.84;;;19.42;43.92
38616;BME280;24370;51.986;4.666;2024-02-21T05:07:07;101917.44;;;19.74;43.07
38616;BME280;24370;51.986;4.666;2024-02-21T05:09:32;101911.97;;;19.21;44.49
38616;BME280;24370;51.986;4.666;2024-02-21T05:11:57;101899.53;;;20.36;42.17
38616;BME280;24370;51.986;4.666;2024-02-21T05:14:26;101900.16;;;18.67;45.76
38616;BME280;24370;51.986;4.666;2024-02-21T05:16:54;101895.06;;;17.51;47.78
38616;BME280;24370;51.986;4.666;2024-02-21T05:19:20;101897.72;;;18.26;46.56
38616;BME280;24370;51.986;4.666;2024-02-21T05:21:45;101897.81;;;18.21;46.48
38616;BME280;24370;51.986;4.666;2024-02-21T05:24:11;101889.53;;;19.61;44.01
38616;BME280;24370;51.986;4.666;2024-02-21T05:26:36;101891.28;;;19.02;44.79
38616;BME280;24370;51.986;4.666;2024-02-21T05:29:02;101882.91;;;18.85;45.01
38616;BME280;24370;51.986;4.666;2024-02-21T05:31:43;101870.91;;;19.34;44.08
38616;BME280;24370;51.986;4.666;2024-02-21T05:34:20;101866.03;;;19.77;42.89
38616;BME280;24370;51.986;4.666;2024-02-21T05:36:46;101868.34;;;19.01;45.44
38616;BME280;24370;51.986;4.666;2024-02-21T05:39:11;101866.94;;;18.56;46.14
38616;BME280;24370;51.986;4.666;2024-02-21T05:41:37;101854.91;;;19.94;43.34
38616;BME280;24370;51.986;4.666;2024-02-21T05:44:03;101858.94;;;18.91;45.26
38616;BME280;24370;51.986;4.666;2024-02-21T05:46:31;101856.38;;;18.88;45.86
38616;BME280;24370;51.986;4.666;2024-02-21T05:48:56;101857.03;;;18.96;44.86
38616;BME280;24370;51.986;4.666;2024-02-21T05:51:21;101849.78;;;18.02;46.67
38616;BME280;24370;51.986;4.666;2024-02-21T05:53:47;101844.31;;;19.37;44.10
38616;BME280;24370;51.986;4.666;2024-02-21T05:56:13;101842.16;;;18.92;45.38
38616;BME280;24370;51.986;4.666;2024-02-21T05:58:39;101841.59;;;19.10;44.31
38616;BME280;24370;51.986;4.666;2024-02-21T06:01:05;101846.38;;;19.56;43.50
38616;BME280;24370;51.986;4.666;2024-02-21T06:03:32;101844.09;;;18.84;45.41
38616;BME280;24370;51.986;4.666;2024-02-21T06:05:59;101831.53;;;18.92;44.62
38616;BME280;24370;51.986;4.666;2024-02-21T06:08:24;101814.53;;;20.11;43.04
38616;BME280;24370;51.986;4.666;2024-02-21T06:10:49;101817.19;;;19.29;44.04
38616;BME280;24370;51.986;4.666;2024-02-21T06:13:19;101811.50;;;19.68;43.30
38616;BME280;24370;51.986;4.666;2024-02-21T06:15:46;101829.97;;;18.52;45.85
38616;BME280;24370;51.986;4.666;2024-02-21T06:18:11;101840.50;;;18.53;45.78
38616;BME280;24370;51.986;4.666;2024-02-21T06:20:37;101834.22;;;18.90;45.33
38616;BME280;24370;51.986;4.666;2024-02-21T06:23:05;101839.91;;;18.43;46.24
38616;BME280;24370;51.986;4.666;2024-02-21T06:25:31;101848.59;;;18.48;46.38
38616;BME280;24370;51.986;4.666;2024-02-21T06:27:56;101841.50;;;18.51;46.00
38616;BME280;24370;51.986;4.666;2024-02-21T06:30:21;101840.03;;;19.33;44.73
38616;BME280;24370;51.986;4.666;2024-02-21T06:32:47;101843.53;;;18.39;46.05
38616;BME280;24370;51.986;4.666;2024-02-21T06:35:12;101849.66;;;18.74;45.35
38616;BME280;24370;51.986;4.666;2024-02-21T06:37:37;101838.47;;;19.54;43.72
38616;BME280;24370;51.986;4.666;2024-02-21T06:40:04;101834.38;;;19.44;44.11
38616;BME280;24370;51.986;4.666;2024-02-21T06:42:29;101837.84;;;18.55;45.39
38616;BME280;24370;51.986;4.666;2024-02-21T06:44:55;101823.97;;;18.46;45.87
38616;BME280;24370;51.986;4.666;2024-02-21T06:47:21;101829.06;;;17.84;47.41
38616;BME280;24370;51.986;4.666;2024-02-21T06:49:51;101820.94;;;18.92;44.55
38616;BME280;24370;51.986;4.666;2024-02-21T06:52:19;101817.59;;;19.15;44.28
38616;BME280;24370;51.986;4.666;2024-02-21T06:54:46;101815.56;;;19.23;44.29
38616;BME280;24370;51.986;4.666;2024-02-21T06:57:12;101806.03;;;18.86;44.44
38616;BME280;24370;51.986;4.666;2024-02-21T06:59:39;101807.09;;;19.95;43.04
38616;BME280;24370;51.986;4.666;2024-02-21T07:02:04;101807.94;;;20.23;42.04
38616;BME280;24370;51.986;4.666;2024-02-21T07:04:30;101797.97;;;19.49;43.48
38616;BME280;24370;51.986;4.666;2024-02-21T07:06:55;101797.25;;;19.72;43.41
38616;BME280;24370;51.986;4.666;2024-02-21T07:09:21;101800.84;;;19.14;44.24
38616;BME280;24370;51.986;4.666;2024-02-21T07:11:46;101800.03;;;19.11;44.48
38616;BME280;24370;51.986;4.666;2024-02-21T07:14:13;101793.09;;;20.17;42.28
38616;BME280;24370;51.986;4.666;2024-02-21T07:16:39;101794.72;;;19.12;44.14
38616;BME280;24370;51.986;4.666;2024-02-21T07:19:04;101790.28;;;19.68;42.92
38616;BME280;24370;51.986;4.666;2024-02-21T07:21:30;101790.03;;;18.92;44.42
38616;BME280;24370;51.986;4.666;2024-02-21T07:23:55;101779.09;;;19.03;44.41
38616;BME280;24370;51.986;4.666;2024-02-21T07:26:20;101768.59;;;19.00;44.54
38616;BME280;24370;51.986;4.666;2024-02-21T07:28:47;101757.41;;;19.47;43.90
38616;BME280;24370;51.986;4.666;2024-02-21T07:31:12;101759.41;;;19.40;43.73
38616;BME280;24370;51.986;4.666;2024-02-21T07:33:37;101760.47;;;18.75;45.46
38616;BME280;24370;51.986;4.666;2024-02-21T07:36:07;101758.28;;;18.91;45.10
38616;BME280;24370;51.986;4.666;2024-02-21T07:38:32;101759.94;;;18.32;46.22
38616;BME280;24370;51.986;4.666;2024-02-21T07:40:58;101745.47;;;18.75;45.55
38616;BME280;24370;51.986;4.666;2024-02-21T07:43:23;101756.78;;;17.83;47.70
38616;BME280;24370;51.986;4.666;2024-02-21T07:45:49;101752.16;;;18.87;45.27
38616;BME280;24370;51.986;4.666;2024-02-21T07:48:14;101750.03;;;18.70;45.05
38616;BME280;24370;51.986;4.666;2024-02-21T07:50:39;101750.69;;;18.16;46.30
38616;BME280;24370;51.986;4.666;2024-02-21T07:53:05;101738.84;;;18.29;46.04
38616;BME280;24370;51.986;4.666;2024-02-21T07:55:30;101728.72;;;18.43;46.06
38616;BME280;24370;51.986;4.666;2024-02-21T07:57:55;101721.94;;;18.35;46.13
38616;BME280;24370;51.986;4.666;2024-02-21T08:00:21;101726.84;;;17.83;47.17
38616;BME280;24370;51.986;4.666;2024-02-21T08:02:50;101720.22;;;17.66;47.82
38616;BME280;24370;51.986;4.666;2024-02-21T08:05:15;101722.25;;;17.55;48.66
38616;BME280;24370;51.986;4.666;2024-02-21T08:07:41;101721.72;;;18.42;46.05
38616;BME280;24370;51.986;4.666;2024-02-21T08:10:07;101719.91;;;17.06;48.69
38616;BME280;24370;51.986;4.666;2024-02-21T08:12:33;101709.66;;;18.32;46.13
38616;BME280;24370;51.986;4.666;2024-02-21T08:14:58;101712.44;;;18.59;45.47
38616;BME280;24370;51.986;4.666;2024-02-21T08:17:24;101700.91;;;18.30;46.65
38616;BME280;24370;51.986;4.666;2024-02-21T08:19:49;101711.53;;;17.61;47.37
38616;BME280;24370;51.986;4.666;2024-02-21T08:22:15;101694.03;;;18.23;46.44
38616;BME280;24370;51.986;4.666;2024-02-21T08:24:40;101699.97;;;18.00;47.08
38616;BME280;24370;51.986;4.666;2024-02-21T08:27:05;101684.13;;;18.91;44.98
38616;BME280;24370;51.986;4.666;2024-02-21T08:29:31;101680.44;;;18.65;45.45
38616;BME280;24370;51.986;4.666;2024-02-21T08:31:56;101684.97;;;19.20;44.17
38616;BME280;24370;51.986;4.666;2024-02-21T08:34:22;101675.38;;;19.15;44.40
38616;BME280;24370;51.986;4.666;2024-02-21T08:36:47;101667.84;;;18.73;45.14
38616;BME280;24370;51.986;4.666;2024-02-21T08:39:12;101672.03;;;18.80;45.01
38616;BME280;24370;51.986;4.666;2024-02-21T08:41:41;101673.63;;;18.58;45.60
38616;BME280;24370;51.986;4.666;2024-02-21T08:44:07;101667.53;;;19.12;44.65
38616;BME280;24370;51.986;4.666;2024-02-21T08:46:32;101662.53;;;19.03;44.35
38616;BME280;24370;51.986;4.666;2024-02-21T08:48:58;101653.88;;;20.02;42.99
38616;BME280;24370;51.986;4.666;2024-02-21T08:51:23;101659.09;;;18.99;44.59
38616;BME280;24370;51.986;4.666;2024-02-21T08:53:49;101652.44;;;18.58;45.41
38616;BME280;24370;51.986;4.666;2024-02-21T08:56:15;101644.34;;;20.20;42.08
38616;BME280;24370;51.986;4.666;2024-02-21T08:58:41;101633.47;;;19.54;43.28
38616;BME280;24370;51.986;4.666;2024-02-21T09:01:07;101631.13;;;19.18;43.97
38616;BME280;24370;51.986;4.666;2024-02-21T09:03:38;101629.84;;;19.04;45.13
38616;BME280;24370;51.986;4.666;2024-02-21T09:06:05;101628.47;;;19.44;43.23
38616;BME280;24370;51.986;4.666;2024-02-21T09:08:31;101631.41;;;19.62;43.31
38616;BME280;24370;51.986;4.666;2024-02-21T09:10:56;101628.72;;;18.25;46.20
38616;BME280;24370;51.986;4.666;2024-02-21T09:13:22;101620.84;;;18.80;44.71
38616;BME280;24370;51.986;4.666;2024-02-21T09:15:48;101607.81;;;19.02;44.20
38616;BME280;24370;51.986;4.666;2024-02-21T09:18:14;101603.56;;;18.40;45.54
38616;BME280;24370;51.986;4.666;2024-02-21T09:20:40;101598.69;;;17.96;46.82
38616;BME280;24370;51.986;4.666;2024-02-21T09:23:05;101599.44;;;19.14;44.55
38616;BME280;24370;51.986;4.666;2024-02-21T09:25:31;101582.56;;;18.92;44.12
38616;BME280;24370;51.986;4.666;2024-02-21T09:27:57;101573.28;;;18.77;44.52
38616;BME280;24370;51.986;4.666;2024-02-21T09:30:23;101567.31;;;18.70;44.04
38616;BME280;24370;51.986;4.666;2024-02-21T09:32:49;101563.94;;;19.45;43.25
38616;BME280;24370;51.986;4.666;2024-02-21T09:35:14;101562.03;;;18.70;45.44
38616;BME280;24370;51.986;4.666;2024-02-21T09:37:40;101548.13;;;18.63;44.59
38616;BME280;24370;51.986;4.666;2024-02-21T09:40:06;101547.44;;;18.85;44.50
38616;BME280;24370;51.986;4.666;2024-02-21T09:42:39;101541.16;;;19.14;44.00
38616;BME280;24370;51.986;4.666;2024-02-21T09:45:08;101536.22;;;19.04;44.57
38616;BME280;24370;51.986;4.666;2024-02-21T09:50:26;101509.75;;;19.29;43.92
38616;BME280;24370;51.986;4.666;2024-02-21T09:52:54;101504.47;;;18.20;45.50
38616;BME280;24370;51.986;4.666;2024-02-21T09:55:20;101500.41;;;19.42;43.06
38616;BME280;24370;51.986;4.666;2024-02-21T09:57:45;101501.75;;;18.78;44.34
38616;BME280;24370;51.986;4.666;2024-02-21T10:00:12;101502.59;;;19.55;42.95
38616;BME280;24370;51.986;4.666;2024-02-21T10:02:39;101496.09;;;20.33;41.76
38616;BME280;24370;51.986;4.666;2024-02-21T10:05:04;101492.69;;;18.59;44.64
38616;BME280;24370;51.986;4.666;2024-02-21T10:07:33;101489.81;;;18.65;44.35
38616;BME280;24370;51.986;4.666;2024-02-21T10:10:05;101477.91;;;20.89;40.54
38616;BME280;24370;51.986;4.666;2024-02-21T10:12:31;101474.56;;;18.46;44.45
38616;BME280;24370;51.986;4.666;2024-02-21T10:15:04;101453.53;;;19.44;43.47
38616;BME280;24370;51.986;4.666;2024-02-21T10:17:29;101441.97;;;19.69;42.34
38616;BME280;24370;51.986;4.666;2024-02-21T10:19:55;101434.84;;;19.24;43.66
38616;BME280;24370;51.986;4.666;2024-02-21T10:22:20;101414.50;;;18.74;44.69
38616;BME280;24370;51.986;4.666;2024-02-21T10:24:46;101400.34;;;18.75;44.28
38616;BME280;24370;51.986;4.666;2024-02-21T10:27:11;101388.44;;;20.26;41.02
38616;BME280;24370;51.986;4.666;2024-02-21T10:29:37;101397.94;;;19.18;43.50
38616;BME280;24370;51.986;4.666;2024-02-21T10:32:10;101418.03;;;18.74;44.26
38616;BME280;24370;51.986;4.666;2024-02-21T10:34:37;101425.66;;;19.09;43.93
38616;BME280;24370;51.986;4.666;2024-02-21T10:37:04;101429.97;;;19.59;42.82
38616;BME280;24370;51.986;4.666;2024-02-21T10:39:33;101445.56;;;19.68;42.48
38616;BME280;24370;51.986;4.666;2024-02-21T10:42:03;101437.38;;;19.50;42.81
38616;BME280;24370;51.986;4.666;2024-02-21T10:44:40;101442.06;;;18.95;43.75
38616;BME280;24370;51.986;4.666;2024-02-21T10:47:10;101432.25;;;19.22;43.46
38616;BME280;24370;51.986;4.666;2024-02-21T10:49:38;101433.81;;;19.52;43.28
38616;BME280;24370;51.986;4.666;2024-02-21T10:52:43;101432.66;;;18.85;43.77
38616;BME280;24370;51.986;4.666;2024-02-21T10:55:20;101418.53;;;19.58;42.85
38616;BME280;24370;51.986;4.666;2024-02-21T10:57:49;101412.13;;;19.64;42.99
38616;BME280;24370;51.986;4.666;2024-02-21T11:00:17;101414.75;;;20.10;42.14
38616;BME280;24370;51.986;4.666;2024-02-21T11:02:43;101420.00;;;19.65;42.49
38616;BME280;24370;51.986;4.666;2024-02-21T11:05:09;101417.41;;;19.88;42.71
38616;BME280;24370;51.986;4.666;2024-02-21T11:07:36;101416.97;;;19.98;42.58
38616;BME280;24370;51.986;4.666;2024-02-21T11:10:02;101408.06;;;19.77;42.12
38616;BME280;24370;51.986;4.666;2024-02-21T11:12:32;101400.94;;;19.56;42.48
38616;BME280;24370;51.986;4.666;2024-02-21T11:15:07;101377.50;;;19.21;42.99
38616;BME280;24370;51.986;4.666;2024-02-21T11:17:33;101354.84;;;19.14;42.82
38616;BME280;24370;51.986;4.666;2024-02-21T11:19:58;101346.94;;;18.87;44.03
38616;BME280;24370;51.986;4.666;2024-02-21T11:22:26;101338.75;;;18.70;44.06
38616;BME280;24370;51.986;4.666;2024-02-21T11:25:06;101354.41;;;19.48;42.83
38616;BME280;24370;51.986;4.666;2024-02-21T11:27:33;101345.03;;;19.62;42.23
38616;BME280;24370;51.986;4.666;2024-02-21T11:29:59;101329.34;;;19.56;42.28
38616;BME280;24370;51.986;4.666;2024-02-21T11:32:25;101303.91;;;20.16;41.23
38616;BME280;24370;51.986;4.666;2024-02-21T11:34:59;101311.41;;;20.27;41.15
38616;BME280;24370;51.986;4.666;2024-02-21T11:37:28;101288.41;;;20.07;41.15
38616;BME280;24370;51.986;4.666;2024-02-21T11:39:57;101295.41;;;20.08;42.13
38616;BME280;24370;51.986;4.666;2024-02-21T11:42:25;101289.69;;;19.97;41.91
38616;BME280;24370;51.986;4.666;2024-02-21T11:44:50;101277.78;;;20.48;41.05
38616;BME280;24370;51.986;4.666;2024-02-21T11:47:15;101280.16;;;19.48;42.61
38616;BME280;24370;51.986;4.666;2024-02-21T11:49:46;101280.41;;;19.87;42.01
38616;BME280;24370;51.986;4.666;2024-02-21T11:52:12;101268.16;;;20.86;40.56
38616;BME280;24370;51.986;4.666;2024-02-21T11:54:40;101268.09;;;19.41;42.88
38616;BME280;24370;51.986;4.666;2024-02-21T11:57:06;101266.22;;;19.88;41.65
38616;BME280;24370;51.986;4.666;2024-02-21T11:59:31;101254.91;;;20.25;40.40
38616;BME280;24370;51.986;4.666;2024-02-21T12:01:58;101265.31;;;20.09;40.83
38616;BME280;24370;51.986;4.666;2024-02-21T12:04:24;101233.91;;;20.79;39.59
38616;BME280;24370;51.986;4.666;2024-02-21T12:06:50;101238.50;;;20.15;40.61
38616;BME280;24370;51.986;4.666;2024-02-21T12:09:17;101233.91;;;19.56;41.86
38616;BME280;24370;51.986;4.666;2024-02-21T12:11:44;101223.75;;;20.29;40.97
38616;BME280;24370;51.986;4.666;2024-02-21T12:14:09;101217.16;;;20.19;40.56
38616;BME280;24370;51.986;4.666;2024-02-21T12:16:35;101198.25;;;19.63;41.58
38616;BME280;24370;51.986;4.666;2024-02-21T12:19:04;101191.25;;;19.40;42.16
38616;BME280;24370;51.986;4.666;2024-02-21T12:21:31;101180.72;;;19.81;41.22
38616;BME280;24370;51.986;4.666;2024-02-21T12:24:00;101174.47;;;19.61;41.60
38616;BME280;24370;51.986;4.666;2024-02-21T12:26:36;101167.66;;;19.76;41.05
38616;BME280;24370;51.986;4.666;2024-02-21T12:29:02;101155.13;;;19.17;42.86
38616;BME280;24370;51.986;4.666;2024-02-21T12:31:27;101156.38;;;18.62;43.74
38616;BME280;24370;51.986;4.666;2024-02-21T12:33:53;101133.63;;;19.02;43.08
38616;BME280;24370;51.986;4.666;2024-02-21T12:36:19;101119.69;;;18.97;43.12
38616;BME280;24370;51.986;4.666;2024-02-21T12:38:44;101119.16;;;18.43;44.04
38616;BME280;24370;51.986;4.666;2024-02-21T12:41:11;101112.91;;;19.12;42.71
38616;BME280;24370;51.986;4.666;2024-02-21T12:43:37;101116.19;;;19.19;42.33
38616;BME280;24370;51.986;4.666;2024-02-21T12:46:03;101099.59;;;19.13;42.98
38616;BME280;24370;51.986;4.666;2024-02-21T12:48:29;101099.97;;;19.26;41.89